Time;durP1;ratioP1;P1;durP2;ratioP2;P2;SDS_P1;SDS_P2;PMS_P1;PMS_P2;Temp;Humidity;BMP_temperature;BMP_pressure;BME280_temperature;BME280_humidity;BME280_pressure;Samples;Min_cycle;Max_cycle;Signal;HPM_P1;HPM_P2
2024/01/21 00:01:48;;;;;;;;;;;17.10;43.00;;;;;;1568164;74;784;-72
2024/01/21 00:03:50;;;;;;;;;;;17.10;42.90;;;;;;1560835;74;599;-72
2024/01/21 00:05:52;;;;;;;;;;;17.00;42.90;;;;;;1571522;74;706;-71
2024/01/21 00:07:54;;;;;;;;;;;17.10;43.00;;;;;;1566669;74;1132;-73
2024/01/21 00:09:56;;;;;;;;;;;17.10;42.90;;;;;;1567186;74;1942;-72
2024/01/21 00:11:58;;;;;;;;;;;17.10;42.90;;;;;;1568345;74;593;-72
2024/01/21 00:14:00;;;;;;;;;;;17.10;42.90;;;;;;1559567;75;772;-72
2024/01/21 00:16:02;;;;;;;;;;;17.10;42.90;;;;;;1571686;74;796;-71
2024/01/21 00:18:04;;;;;;;;;;;17.20;42.90;;;;;;1568425;74;1113;-72
2024/01/21 00:20:06;;;;;;;;;;;17.10;42.80;;;;;;1569739;74;674;-71
2024/01/21 00:22:07;;;;;;;;;;;17.20;42.90;;;;;;1568970;74;806;-71
2024/01/21 00:24:09;;;;;;;;;;;17.10;42.90;;;;;;1564956;74;1608;-64
2024/01/21 00:26:11;;;;;;;;;;;17.10;42.80;;;;;;1567444;74;756;-72
2024/01/21 00:28:13;;;;;;;;;;;17.20;42.80;;;;;;1561829;74;1167;-67
2024/01/21 00:30:15;;;;;;;;;;;17.20;42.80;;;;;;1559930;74;1922;-71
2024/01/21 00:32:17;;;;;;;;;;;17.20;42.90;;;;;;1573539;74;814;-66
2024/01/21 00:34:19;;;;;;;;;;;17.20;42.80;;;;;;1570990;74;709;-70
2024/01/21 00:36:21;;;;;;;;;;;17.20;42.80;;;;;;1571324;74;732;-70
2024/01/21 00:38:23;;;;;;;;;;;17.20;42.80;;;;;;1564221;74;1502;-72
2024/01/21 00:40:25;;;;;;;;;;;17.20;42.90;;;;;;1554547;74;721;-71
2024/01/21 00:42:27;;;;;;;;;;;17.20;42.80;;;;;;1568481;74;790;-66
2024/01/21 00:44:29;;;;;;;;;;;17.20;42.80;;;;;;1564037;74;710;-73
2024/01/21 00:46:31;;;;;;;;;;;17.20;42.90;;;;;;1566262;74;665;-65
2024/01/21 00:48:33;;;;;;;;;;;17.20;42.80;;;;;;1574659;74;1169;-71
2024/01/21 00:50:35;;;;;;;;;;;17.20;42.80;;;;;;1568163;74;1912;-69
2024/01/21 00:52:37;;;;;;;;;;;17.20;42.80;;;;;;1562993;74;1542;-72
2024/01/21 00:54:39;;;;;;;;;;;17.20;42.80;;;;;;1570822;74;790;-70
2024/01/21 00:56:41;;;;;;;;;;;17.20;42.80;;;;;;1562318;74;700;-70
2024/01/21 00:58:43;;;;;;;;;;;17.70;43.10;;;;;;1556148;74;1159;-73
2024/01/21 01:00:45;;;;;;;;;;;17.20;42.80;;;;;;1563466;74;725;-72
2024/01/21 01:02:47;;;;;;;;;;;17.20;42.70;;;;;;1561708;74;791;-69
2024/01/21 01:04:48;;;;;;;;;;;17.20;42.80;;;;;;1567185;74;729;-72
2024/01/21 01:06:50;;;;;;;;;;;17.20;42.80;;;;;;1561245;74;1371;-69
2024/01/21 01:08:52;;;;;;;;;;;17.20;42.80;;;;;;1560200;74;1947;-72
2024/01/21 01:10:54;;;;;;;;;;;17.20;42.80;;;;;;1562640;74;790;-74
2024/01/21 01:12:58;;;;;;;;;;;17.20;42.80;;;;;;1570293;75;674;-69
2024/01/21 01:15:00;;;;;;;;;;;17.30;42.80;;;;;;1565707;74;590;-71
2024/01/21 01:17:01;;;;;;;;;;;17.20;42.80;;;;;;1575523;74;665;-71
2024/01/21 01:19:03;;;;;;;;;;;17.20;42.80;;;;;;1564631;74;1126;-68
2024/01/21 01:21:05;;;;;;;;;;;17.20;42.80;;;;;;1565940;74;1583;-65
2024/01/21 01:23:07;;;;;;;;;;;17.20;42.80;;;;;;1570182;74;765;-72
2024/01/21 01:25:09;;;;;;;;;;;17.20;42.70;;;;;;1570120;74;777;-72
2024/01/21 01:27:11;;;;;;;;;;;17.20;42.80;;;;;;1564221;74;667;-71
2024/01/21 01:29:13;;;;;;;;;;;17.30;42.90;;;;;;1568057;74;1986;-71
2024/01/21 01:31:18;;;;;;;;;;;17.20;42.70;;;;;;1565139;74;726;-71
2024/01/21 01:33:19;;;;;;;;;;;17.30;42.90;;;;;;1564124;74;1558;-72
2024/01/21 01:35:21;;;;;;;;;;;17.20;42.80;;;;;;1567815;74;733;-70
2024/01/21 01:37:23;;;;;;;;;;;17.30;42.90;;;;;;1565205;74;1133;-65
2024/01/21 01:39:25;;;;;;;;;;;17.20;42.80;;;;;;1564629;74;681;-71
2024/01/21 01:41:27;;;;;;;;;;;17.20;42.80;;;;;;1558598;74;593;-70
2024/01/21 01:43:29;;;;;;;;;;;17.20;42.80;;;;;;1569830;75;797;-71
2024/01/21 01:45:31;;;;;;;;;;;17.20;42.80;;;;;;1562271;74;849;-71
2024/01/21 01:47:33;;;;;;;;;;;17.20;42.80;;;;;;1565738;74;1549;-73
2024/01/21 01:49:35;;;;;;;;;;;17.20;42.70;;;;;;1570505;75;1939;-70
2024/01/21 01:51:36;;;;;;;;;;;17.20;42.80;;;;;;1566370;74;683;-70
2024/01/21 01:53:38;;;;;;;;;;;17.20;42.80;;;;;;1566245;74;756;-69
2024/01/21 01:55:40;;;;;;;;;;;17.20;42.70;;;;;;1566535;75;677;-69
2024/01/21 01:57:42;;;;;;;;;;;17.20;42.70;;;;;;1573171;74;1144;-70
2024/01/21 01:59:44;;;;;;;;;;;17.20;42.70;;;;;;1572473;74;674;-69
2024/01/21 02:01:46;;;;;;;;;;;17.20;42.70;;;;;;1559014;74;1279;-69
2024/01/21 02:03:48;;;;;;;;;;;17.20;42.80;;;;;;1565921;74;677;-69
2024/01/21 02:05:50;;;;;;;;;;;17.20;42.80;;;;;;1563693;74;559;-70
2024/01/21 02:07:52;;;;;;;;;;;17.30;42.90;;;;;;1557545;74;1122;-72
2024/01/21 02:09:54;;;;;;;;;;;17.10;42.80;;;;;;1570038;74;1939;-65
2024/01/21 02:11:57;;;;;;;;;;;17.20;42.80;;;;;;1571609;74;735;-64
2024/01/21 02:14:00;;;;;;;;;;;17.20;42.80;;;;;;1566688;74;580;-73
2024/01/21 02:16:02;;;;;;;;;;;17.20;42.80;;;;;;1561917;74;1295;-71
2024/01/21 02:18:04;;;;;;;;;;;17.20;42.80;;;;;;1557318;74;1086;-72
2024/01/21 02:20:11;;;;;;;;;;;17.20;42.80;;;;;;1568517;74;679;-72
2024/01/21 02:22:10;;;;;;;;;;;17.20;42.80;;;;;;1559594;74;1257;-72
2024/01/21 02:24:12;;;;;;;;;;;17.20;42.80;;;;;;1567532;74;679;-69
2024/01/21 02:26:14;;;;;;;;;;;17.30;42.90;;;;;;1555395;74;590;-70
2024/01/21 02:28:16;;;;;;;;;;;17.20;42.80;;;;;;1566118;74;1102;-69
2024/01/21 02:30:18;;;;;;;;;;;17.20;42.80;;;;;;1564986;74;1910;-72
2024/01/21 02:32:20;;;;;;;;;;;17.20;42.80;;;;;;1568198;74;564;-72
2024/01/21 02:34:22;;;;;;;;;;;17.20;42.70;;;;;;1573952;74;688;-71
2024/01/21 02:36:24;;;;;;;;;;;17.20;42.80;;;;;;1566773;74;688;-70
2024/01/21 02:38:25;;;;;;;;;;;17.20;42.70;;;;;;1566998;74;1141;-64
2024/01/21 02:40:27;;;;;;;;;;;17.20;42.80;;;;;;1572680;74;594;-64
2024/01/21 02:42:29;;;;;;;;;;;17.10;42.80;;;;;;1566295;74;756;-71
2024/01/21 02:44:31;;;;;;;;;;;17.20;42.70;;;;;;1564096;74;1373;-72
2024/01/21 02:46:33;;;;;;;;;;;17.20;42.80;;;;;;1570072;74;665;-70
2024/01/21 02:48:35;;;;;;;;;;;17.20;42.80;;;;;;1565599;74;1164;-73
2024/01/21 02:50:37;;;;;;;;;;;17.10;42.80;;;;;;1562436;74;1945;-71
2024/01/21 02:52:38;;;;;;;;;;;17.10;42.80;;;;;;1566144;74;733;-72
2024/01/21 02:54:40;;;;;;;;;;;17.20;42.80;;;;;;1568017;74;810;-72
2024/01/21 02:56:42;;;;;;;;;;;17.20;42.80;;;;;;1567687;74;737;-72
2024/01/21 02:58:44;;;;;;;;;;;17.20;42.80;;;;;;1568098;74;1266;-73
2024/01/21 03:00:46;;;;;;;;;;;17.20;42.80;;;;;;1564717;74;815;-71
2024/01/21 03:02:49;;;;;;;;;;;17.20;42.80;;;;;;1563608;74;636;-69
2024/01/21 03:04:51;;;;;;;;;;;17.20;42.80;;;;;;1566651;74;798;-70
2024/01/21 03:06:53;;;;;;;;;;;17.20;42.80;;;;;;1558308;74;680;-72
2024/01/21 03:08:55;;;;;;;;;;;17.10;42.80;;;;;;1565608;74;1106;-69
2024/01/21 03:10:57;;;;;;;;;;;17.20;42.80;;;;;;1572223;74;1941;-72
2024/01/21 03:13:00;;;;;;;;;;;17.20;42.90;;;;;;1573766;74;1532;-71
2024/01/21 03:15:04;;;;;;;;;;;17.20;42.80;;;;;;1571342;74;699;-70
2024/01/21 03:17:06;;;;;;;;;;;17.20;42.90;;;;;;1568792;74;697;-72
2024/01/21 03:19:07;;;;;;;;;;;17.10;42.80;;;;;;1565026;74;1076;-69
2024/01/21 03:21:09;;;;;;;;;;;17.10;42.80;;;;;;1568686;74;631;-70
2024/01/21 03:23:11;;;;;;;;;;;17.10;42.80;;;;;;1563258;74;771;-69
2024/01/21 03:25:13;;;;;;;;;;;17.10;42.80;;;;;;1564741;74;647;-72
2024/01/21 03:27:15;;;;;;;;;;;17.20;42.80;;;;;;1562825;74;1583;-71
2024/01/21 03:29:17;;;;;;;;;;;17.20;42.90;;;;;;1563629;74;1134;-71
2024/01/21 03:31:19;;;;;;;;;;;17.20;42.80;;;;;;1570972;74;1930;-73
2024/01/21 03:33:21;;;;;;;;;;;17.20;42.90;;;;;;1566117;74;636;-71
2024/01/21 03:35:23;;;;;;;;;;;17.20;42.80;;;;;;1564562;74;951;-65
2024/01/21 03:37:25;;;;;;;;;;;17.10;42.80;;;;;;1571511;74;1122;-71
2024/01/21 03:39:27;;;;;;;;;;;17.10;42.80;;;;;;1565703;74;661;-70
2024/01/21 03:41:29;;;;;;;;;;;17.10;42.90;;;;;;1563424;74;1288;-73
2024/01/21 03:43:31;;;;;;;;;;;17.10;42.80;;;;;;1567701;74;665;-72
2024/01/21 03:45:32;;;;;;;;;;;17.20;42.80;;;;;;1563426;75;762;-71
2024/01/21 03:47:34;;;;;;;;;;;17.10;42.90;;;;;;1577075;74;1129;-72
2024/01/21 03:49:36;;;;;;;;;;;17.10;42.80;;;;;;1564564;74;745;-72
2024/01/21 03:51:38;;;;;;;;;;;17.20;42.80;;;;;;1562503;74;1934;-72
2024/01/21 03:53:41;;;;;;;;;;;17.10;42.90;;;;;;1565472;74;631;-71
2024/01/21 03:55:43;;;;;;;;;;;17.10;42.90;;;;;;1564355;74;1657;-73
2024/01/21 03:57:45;;;;;;;;;;;17.20;42.90;;;;;;1559893;74;1192;-73
2024/01/21 03:59:47;;;;;;;;;;;17.10;42.80;;;;;;1564909;74;744;-72
2024/01/21 04:01:49;;;;;;;;;;;17.20;42.80;;;;;;1564447;74;592;-64
2024/01/21 04:03:51;;;;;;;;;;;17.10;42.90;;;;;;1556334;74;671;-71
2024/01/21 04:05:53;;;;;;;;;;;17.10;42.90;;;;;;1568631;74;718;-72
2024/01/21 04:07:55;;;;;;;;;;;17.10;42.90;;;;;;1570258;74;1595;-72
2024/01/21 04:09:57;;;;;;;;;;;17.10;42.90;;;;;;1568307;74;1938;-70
2024/01/21 04:11:59;;;;;;;;;;;17.10;42.80;;;;;;1565190;74;638;-71
2024/01/21 04:14:01;;;;;;;;;;;17.10;42.80;;;;;;1555660;74;702;-72
2024/01/21 04:16:03;;;;;;;;;;;17.10;42.80;;;;;;1565775;74;697;-72
2024/01/21 04:18:05;;;;;;;;;;;17.10;42.90;;;;;;1568748;74;1102;-72
2024/01/21 04:20:08;;;;;;;;;;;17.10;42.80;;;;;;1568458;74;794;-71
2024/01/21 04:22:10;;;;;;;;;;;17.10;42.80;;;;;;1566349;74;1541;-72
2024/01/21 04:24:12;;;;;;;;;;;17.10;42.80;;;;;;1566583;74;739;-69
2024/01/21 04:26:15;;;;;;;;;;;17.10;42.90;;;;;;1565460;74;726;-71
2024/01/21 04:28:17;;;;;;;;;;;17.10;42.90;;;;;;1575143;74;1130;-72
2024/01/21 04:30:18;;;;;;;;;;;17.20;42.80;;;;;;1564842;74;1914;-72
2024/01/21 04:32:21;;;;;;;;;;;17.10;42.90;;;;;;1562826;74;659;-71
2024/01/21 04:34:22;;;;;;;;;;;17.10;42.90;;;;;;1573111;74;709;-72
2024/01/21 04:36:24;;;;;;;;;;;17.10;42.90;;;;;;1560695;74;1508;-71
2024/01/21 04:38:26;;;;;;;;;;;17.10;42.90;;;;;;1564488;74;1165;-73
2024/01/21 04:40:28;;;;;;;;;;;17.10;42.90;;;;;;1569198;74;716;-72
2024/01/21 04:42:30;;;;;;;;;;;17.10;42.90;;;;;;1562062;74;753;-71
2024/01/21 04:44:32;;;;;;;;;;;17.10;42.90;;;;;;1559914;74;575;-71
2024/01/21 04:46:34;;;;;;;;;;;17.10;42.90;;;;;;1568844;74;696;-69
2024/01/21 04:48:36;;;;;;;;;;;17.10;42.90;;;;;;1553370;74;1171;-72
2024/01/21 04:50:37;;;;;;;;;;;17.10;42.90;;;;;;1565079;74;1936;-65
2024/01/21 04:52:39;;;;;;;;;;;17.00;42.80;;;;;;1562366;74;718;-65
2024/01/21 04:54:41;;;;;;;;;;;17.10;43.00;;;;;;1566222;74;680;-69
2024/01/21 04:56:43;;;;;;;;;;;17.10;42.90;;;;;;1565302;74;704;-72
2024/01/21 04:58:45;;;;;;;;;;;17.10;42.90;;;;;;1567316;74;1145;-73
2024/01/21 05:00:47;;;;;;;;;;;17.10;42.90;;;;;;1564111;74;716;-66
2024/01/21 05:02:49;;;;;;;;;;;17.10;42.90;;;;;;1572906;74;725;-71
2024/01/21 05:04:51;;;;;;;;;;;17.10;42.90;;;;;;1561521;74;1300;-71
2024/01/21 05:06:53;;;;;;;;;;;17.10;42.90;;;;;;1568437;74;735;-72
2024/01/21 05:08:55;;;;;;;;;;;17.10;42.90;;;;;;1555368;74;1087;-71
2024/01/21 05:10:57;;;;;;;;;;;17.10;42.90;;;;;;1568369;74;1926;-70
2024/01/21 05:12:58;;;;;;;;;;;17.10;42.90;;;;;;1568048;74;825;-71
2024/01/21 05:15:00;;;;;;;;;;;17.10;42.90;;;;;;1566538;75;718;-73
2024/01/21 05:17:03;;;;;;;;;;;17.10;43.00;;;;;;1561527;74;662;-73
2024/01/21 05:19:04;;;;;;;;;;;17.10;43.00;;;;;;1566924;74;1502;-72
2024/01/21 05:21:06;;;;;;;;;;;17.10;43.00;;;;;;1560433;74;737;-71
2024/01/21 05:23:08;;;;;;;;;;;17.10;42.90;;;;;;1562495;74;634;-69
2024/01/21 05:25:10;;;;;;;;;;;17.10;42.90;;;;;;1552004;74;713;-72
2024/01/21 05:27:12;;;;;;;;;;;17.10;43.00;;;;;;1561403;74;736;-73
2024/01/21 05:29:14;;;;;;;;;;;17.10;42.90;;;;;;1557358;74;1122;-73
2024/01/21 05:31:16;;;;;;;;;;;17.00;42.80;;;;;;1561236;74;1925;-73
2024/01/21 05:33:17;;;;;;;;;;;17.10;42.90;;;;;;1557837;74;1285;-70
2024/01/21 05:35:22;;;;;;;;;;;17.10;42.90;;;;;;1570230;74;645;-72
2024/01/21 05:37:23;;;;;;;;;;;17.10;43.00;;;;;;1570658;74;1487;-71
2024/01/21 05:39:25;;;;;;;;;;;17.10;42.90;;;;;;1568849;74;711;-72
2024/01/21 05:41:28;;;;;;;;;;;17.10;43.00;;;;;;1570351;74;726;-71
2024/01/21 05:43:30;;;;;;;;;;;17.10;43.00;;;;;;1566375;74;769;-69
2024/01/21 05:45:32;;;;;;;;;;;17.10;42.90;;;;;;1566190;74;697;-72
2024/01/21 05:47:34;;;;;;;;;;;17.10;42.90;;;;;;1564275;74;1322;-69
2024/01/21 05:49:36;;;;;;;;;;;17.10;43.00;;;;;;1564759;74;726;-72
2024/01/21 05:51:37;;;;;;;;;;;17.10;43.00;;;;;;1567478;74;1930;-72
2024/01/21 05:53:41;;;;;;;;;;;17.10;43.00;;;;;;1561956;74;734;-70
2024/01/21 05:55:45;;;;;;;;;;;17.10;43.10;;;;;;1562603;74;729;-72
2024/01/21 05:57:47;;;;;;;;;;;17.10;43.00;;;;;;1564949;74;1849;-72
2024/01/21 05:59:49;;;;;;;;;;;17.10;43.00;;;;;;1565717;74;740;-71
2024/01/21 06:01:51;;;;;;;;;;;17.10;43.00;;;;;;1558874;74;1476;-71
2024/01/21 06:03:53;;;;;;;;;;;17.10;43.00;;;;;;1566639;74;725;-72
2024/01/21 06:05:56;;;;;;;;;;;17.20;43.00;;;;;;1560227;74;705;-73
2024/01/21 06:07:58;;;;;;;;;;;17.20;42.90;;;;;;1562967;74;1143;-72
2024/01/21 06:10:00;;;;;;;;;;;17.10;42.90;;;;;;1562795;74;713;-69
2024/01/21 06:12:02;;;;;;;;;;;17.20;42.80;;;;;;1557515;74;1949;-73
2024/01/21 06:14:03;;;;;;;;;;;17.20;42.90;;;;;;1563519;75;664;-72
2024/01/21 06:16:05;;;;;;;;;;;17.10;42.80;;;;;;1564106;74;1650;-65
2024/01/21 06:18:07;;;;;;;;;;;17.20;42.90;;;;;;1567229;74;1082;-72
2024/01/21 06:20:09;;;;;;;;;;;17.20;42.80;;;;;;1558549;74;796;-72
2024/01/21 06:22:11;;;;;;;;;;;17.20;42.80;;;;;;1566266;74;726;-64
2024/01/21 06:24:13;;;;;;;;;;;17.20;42.80;;;;;;1568306;74;732;-65
2024/01/21 06:26:15;;;;;;;;;;;17.20;42.80;;;;;;1566737;74;742;-67
2024/01/21 06:28:17;;;;;;;;;;;17.20;42.80;;;;;;1560991;74;1177;-73
2024/01/21 06:30:21;;;;;;;;;;;17.20;42.80;;;;;;1565727;74;1324;-70
2024/01/21 06:32:23;;;;;;;;;;;17.30;42.90;;;;;;1571631;74;1928;-71
2024/01/21 06:34:24;;;;;;;;;;;17.20;42.80;;;;;;1569416;74;712;-71
2024/01/21 06:36:26;;;;;;;;;;;17.30;42.90;;;;;;1563995;74;719;-70
2024/01/21 06:38:28;;;;;;;;;;;17.30;42.90;;;;;;1560044;74;1111;-71
2024/01/21 06:40:30;;;;;;;;;;;17.20;42.80;;;;;;1557371;74;746;-71
2024/01/21 06:42:32;;;;;;;;;;;17.20;42.70;;;;;;1558347;74;718;-72
2024/01/21 06:44:35;;;;;;;;;;;17.20;42.70;;;;;;1568254;74;1399;-72
2024/01/21 06:46:37;;;;;;;;;;;17.30;42.80;;;;;;1568080;74;699;-73
2024/01/21 06:48:39;;;;;;;;;;;17.30;42.80;;;;;;1565261;74;1110;-71
2024/01/21 06:50:41;;;;;;;;;;;17.30;42.80;;;;;;1567554;74;743;-71
2024/01/21 06:52:42;;;;;;;;;;;17.30;42.70;;;;;;1566221;74;1910;-67
2024/01/21 06:54:44;;;;;;;;;;;17.30;42.80;;;;;;1564074;74;645;-71
2024/01/21 06:56:46;;;;;;;;;;;17.30;42.80;;;;;;1563763;74;1463;-68
2024/01/21 06:58:48;;;;;;;;;;;17.20;42.70;;;;;;1564441;75;1172;-69
2024/01/21 07:00:51;;;;;;;;;;;17.30;42.80;;;;;;1570892;74;810;-73
2024/01/21 07:02:53;;;;;;;;;;;17.30;42.80;;;;;;1557586;74;694;-71
2024/01/21 07:04:55;;;;;;;;;;;17.30;42.80;;;;;;1564169;74;674;-72
2024/01/21 07:06:57;;;;;;;;;;;17.30;42.80;;;;;;1563130;74;702;-72
2024/01/21 07:08:58;;;;;;;;;;;17.30;42.80;;;;;;1563008;74;1107;-71
2024/01/21 07:11:00;;;;;;;;;;;17.30;42.70;;;;;;1562393;74;1928;-69
2024/01/21 07:13:03;;;;;;;;;;;17.30;42.70;;;;;;1561691;74;711;-71
2024/01/21 07:15:05;;;;;;;;;;;17.30;42.70;;;;;;1568143;74;830;-71
2024/01/21 07:17:07;;;;;;;;;;;17.30;42.70;;;;;;1565058;74;628;-68
2024/01/21 07:19:09;;;;;;;;;;;17.20;42.60;;;;;;1558108;74;1080;-73
2024/01/21 07:21:11;;;;;;;;;;;17.30;42.70;;;;;;1566756;74;606;-72
2024/01/21 07:23:13;;;;;;;;;;;17.30;42.70;;;;;;1568481;74;717;-72
2024/01/21 07:25:15;;;;;;;;;;;17.30;42.70;;;;;;1562290;74;1540;-72
2024/01/21 07:27:17;;;;;;;;;;;17.40;42.70;;;;;;1569572;74;725;-70
2024/01/21 07:29:19;;;;;;;;;;;17.30;42.60;;;;;;1564977;74;1172;-70
2024/01/21 07:31:21;;;;;;;;;;;17.30;42.70;;;;;;1564336;74;1908;-73
2024/01/21 07:33:22;;;;;;;;;;;17.40;42.70;;;;;;1565630;74;754;-71
2024/01/21 07:35:24;;;;;;;;;;;17.30;42.70;;;;;;1565627;75;624;-72
2024/01/21 07:37:26;;;;;;;;;;;17.30;42.60;;;;;;1563865;74;1154;-70
2024/01/21 07:39:28;;;;;;;;;;;17.30;42.70;;;;;;1562286;74;1298;-73
2024/01/21 07:41:30;;;;;;;;;;;17.30;42.70;;;;;;1573283;74;700;-73
2024/01/21 07:43:32;;;;;;;;;;;17.30;42.70;;;;;;1568085;74;610;-72
2024/01/21 07:45:34;;;;;;;;;;;17.30;42.60;;;;;;1573415;75;715;-69
2024/01/21 07:47:35;;;;;;;;;;;16.40;42.10;;;;;;1566748;74;1165;-69
2024/01/21 07:49:37;;;;;;;;;;;17.30;42.70;;;;;;1565982;74;761;-71
2024/01/21 07:51:39;;;;;;;;;;;17.30;42.60;;;;;;1566138;74;1945;-73
2024/01/21 07:53:41;;;;;;;;;;;17.30;42.60;;;;;;1564801;74;1510;-70
2024/01/21 07:55:43;;;;;;;;;;;17.60;42.80;;;;;;1559502;75;709;-72
2024/01/21 07:57:45;;;;;;;;;;;17.30;42.70;;;;;;1565078;74;1171;-72
2024/01/21 07:59:47;;;;;;;;;;;17.30;42.70;;;;;;1565914;74;630;-71
2024/01/21 08:01:49;;;;;;;;;;;17.30;42.70;;;;;;1570595;74;719;-71
2024/01/21 08:03:50;;;;;;;;;;;17.70;42.80;;;;;;1570512;74;705;-73
2024/01/21 08:05:53;;;;;;;;;;;17.30;42.60;;;;;;1567052;74;737;-70
2024/01/21 08:07:55;;;;;;;;;;;17.30;42.60;;;;;;1565090;74;1555;-73
2024/01/21 08:09:57;;;;;;;;;;;17.30;42.60;;;;;;1570475;74;707;-72
2024/01/21 08:11:59;;;;;;;;;;;17.30;42.70;;;;;;1561171;74;1926;-70
2024/01/21 08:14:01;;;;;;;;;;;17.30;42.60;;;;;;1567280;74;705;-68
2024/01/21 08:16:02;;;;;;;;;;;17.30;42.60;;;;;;1562464;74;765;-72
2024/01/21 08:18:05;;;;;;;;;;;17.30;42.60;;;;;;1569298;74;1134;-72
2024/01/21 08:20:07;;;;;;;;;;;17.30;42.60;;;;;;1561517;74;717;-71
2024/01/21 08:22:09;;;;;;;;;;;17.30;42.60;;;;;;1564296;74;1463;-72
2024/01/21 08:24:11;;;;;;;;;;;17.30;42.70;;;;;;1566147;74;619;-73
2024/01/21 08:26:12;;;;;;;;;;;17.30;42.60;;;;;;1568941;74;756;-71
2024/01/21 08:28:14;;;;;;;;;;;17.20;42.50;;;;;;1564569;74;1128;-72
2024/01/21 08:30:16;;;;;;;;;;;17.30;42.60;;;;;;1569633;74;719;-72
2024/01/21 08:32:18;;;;;;;;;;;17.30;42.60;;;;;;1565542;74;1960;-70
2024/01/21 08:34:20;;;;;;;;;;;17.30;42.60;;;;;;1565845;74;660;-73
2024/01/21 08:36:22;;;;;;;;;;;17.30;42.60;;;;;;1570071;74;1469;-73
2024/01/21 08:38:24;;;;;;;;;;;17.30;42.70;;;;;;1562936;74;1123;-72
2024/01/21 08:40:26;;;;;;;;;;;17.30;42.60;;;;;;1566815;74;620;-71
2024/01/21 08:42:28;;;;;;;;;;;17.30;42.60;;;;;;1567241;74;627;-71
2024/01/21 08:44:29;;;;;;;;;;;17.30;42.60;;;;;;1564349;74;717;-71
2024/01/21 08:46:31;;;;;;;;;;;17.30;42.60;;;;;;1568742;74;716;-68
2024/01/21 08:48:33;;;;;;;;;;;17.30;42.60;;;;;;1563044;74;1113;-68
2024/01/21 08:50:35;;;;;;;;;;;17.30;42.60;;;;;;1569321;74;1485;-70
2024/01/21 08:52:37;;;;;;;;;;;17.30;42.60;;;;;;1570573;74;1934;-72
2024/01/21 08:54:39;;;;;;;;;;;17.30;42.60;;;;;;1566291;75;756;-72
2024/01/21 08:56:41;;;;;;;;;;;17.30;42.60;;;;;;1565824;74;714;-71
2024/01/21 08:58:43;;;;;;;;;;;17.30;42.60;;;;;;1564432;74;1192;-72
2024/01/21 09:00:45;;;;;;;;;;;17.30;42.60;;;;;;1564151;74;703;-72
2024/01/21 09:02:46;;;;;;;;;;;17.30;42.60;;;;;;1560425;74;734;-71
2024/01/21 09:04:48;;;;;;;;;;;17.30;42.60;;;;;;1567470;74;1268;-72
2024/01/21 09:06:50;;;;;;;;;;;17.30;42.60;;;;;;1563498;74;669;-70
2024/01/21 09:08:54;;;;;;;;;;;17.30;42.60;;;;;;1567807;74;1132;-69
2024/01/21 09:10:56;;;;;;;;;;;17.30;42.60;;;;;;1566820;74;1637;-69
2024/01/21 09:12:58;;;;;;;;;;;17.30;42.60;;;;;;1567036;74;1927;-69
2024/01/21 09:15:00;;;;;;;;;;;17.40;42.60;;;;;;1565187;74;733;-69
2024/01/21 09:17:02;;;;;;;;;;;17.30;42.60;;;;;;1555942;74;657;-69
2024/01/21 09:19:05;;;;;;;;;;;17.30;42.60;;;;;;1552321;74;1579;-69
2024/01/21 09:21:07;;;;;;;;;;;17.30;42.60;;;;;;1562053;74;772;-72
2024/01/21 09:23:09;;;;;;;;;;;17.30;42.60;;;;;;1568356;74;755;-72
2024/01/21 09:25:11;;;;;;;;;;;17.30;42.60;;;;;;1566534;74;742;-73
2024/01/21 09:27:12;;;;;;;;;;;17.30;42.60;;;;;;1567894;74;743;-72
2024/01/21 09:29:14;;;;;;;;;;;17.30;38.20;;;;;;1565900;74;1157;-72
2024/01/21 09:31:16;;;;;;;;;;;17.10;35.90;;;;;;1559135;74;684;-73
2024/01/21 09:33:19;;;;;;;;;;;17.00;37.10;;;;;;1564558;74;1942;-73
2024/01/21 09:35:21;;;;;;;;;;;17.00;39.60;;;;;;1559604;74;804;-72
2024/01/21 09:37:22;;;;;;;;;;;17.00;40.30;;;;;;1561546;74;645;-74
2024/01/21 09:39:25;;;;;;;;;;;17.00;41.10;;;;;;1561742;74;1120;-74
2024/01/21 09:41:31;;;;;;;;;;;17.10;41.10;;;;;;1558676;74;588;-73
2024/01/21 09:43:33;;;;;;;;;;;17.20;41.30;;;;;;1564540;74;660;-74
2024/01/21 09:45:35;;;;;;;;;;;17.20;41.30;;;;;;1566422;74;1328;-73
2024/01/21 09:47:37;;;;;;;;;;;17.20;41.40;;;;;;1556664;74;1149;-74
2024/01/21 09:49:39;;;;;;;;;;;17.20;41.60;;;;;;1566382;74;670;-74
2024/01/21 09:51:41;;;;;;;;;;;17.20;41.70;;;;;;1565381;74;849;-74
2024/01/21 09:53:43;;;;;;;;;;;17.30;41.70;;;;;;1563923;74;1945;-73
2024/01/21 09:55:45;;;;;;;;;;;17.30;41.80;;;;;;1564734;74;667;-72
2024/01/21 09:57:47;;;;;;;;;;;17.30;41.70;;;;;;1565996;74;1153;-72
2024/01/21 09:59:49;;;;;;;;;;;17.30;41.80;;;;;;1562305;74;1307;-75
2024/01/21 10:01:50;;;;;;;;;;;17.30;41.70;;;;;;1565744;74;731;-75
2024/01/21 10:03:52;;;;;;;;;;;17.30;37.80;;;;;;1571162;74;716;-73
2024/01/21 10:05:54;;;;;;;;;;;17.30;37.80;;;;;;1560414;74;710;-72
2024/01/21 10:07:57;;;;;;;;;;;17.20;39.90;;;;;;1566580;74;1185;-73
2024/01/21 10:09:58;;;;;;;;;;;17.20;40.20;;;;;;1559888;74;956;-69
2024/01/21 10:12:01;;;;;;;;;;;17.20;40.60;;;;;;1559108;74;660;-73
2024/01/21 10:14:02;;;;;;;;;;;17.30;40.80;;;;;;1557811;74;1922;-73
2024/01/21 10:16:06;;;;;;;;;;;17.20;40.90;;;;;;1564538;74;739;-74
2024/01/21 10:18:09;;;;;;;;;;;17.30;41.10;;;;;;1565189;74;1169;-71
2024/01/21 10:20:12;;;;;;;;;;;17.30;41.40;;;;;;1558438;74;728;-70
2024/01/21 10:22:14;;;;;;;;;;;17.30;41.30;;;;;;1568078;74;754;-72
2024/01/21 10:24:16;;;;;;;;;;;17.30;41.40;;;;;;1560631;75;757;-73
2024/01/21 10:26:18;;;;;;;;;;;17.40;41.40;;;;;;1525407;76;1039;-71
2024/01/21 10:28:22;;;;;;;;;;;17.40;41.50;;;;;;1561425;74;1525;-72
2024/01/21 10:30:24;;;;;;;;;;;17.40;41.50;;;;;;1561510;74;771;-73
2024/01/21 10:32:25;;;;;;;;;;;17.50;41.80;;;;;;1529920;76;1935;-72
2024/01/21 10:34:27;;;;;;;;;;;17.40;41.80;;;;;;1527893;76;1127;-74
2024/01/21 10:36:33;;;;;;;;;;;17.40;41.80;;;;;;1563731;74;754;-72
2024/01/21 10:38:36;;;;;;;;;;;17.50;42.00;;;;;;1562292;74;1130;-72
2024/01/21 10:40:48;;;;;;;;;;;17.40;41.30;;;;;;1565393;74;792;-71
2024/01/21 10:42:42;;;;;;;;;;;17.20;36.70;;;;;;1554020;74;1661;-72
2024/01/21 10:44:44;;;;;;;;;;;17.10;38.90;;;;;;1568378;74;752;-73
2024/01/21 10:46:46;;;;;;;;;;;17.10;39.90;;;;;;1568557;74;709;-71
2024/01/21 10:48:48;;;;;;;;;;;17.20;40.20;;;;;;1562301;74;1105;-72
2024/01/21 10:50:51;;;;;;;;;;;17.20;40.50;;;;;;1567022;74;609;-74
2024/01/21 10:52:53;;;;;;;;;;;17.50;40.80;;;;;;1560499;74;1910;-72
2024/01/21 10:54:55;;;;;;;;;;;17.30;40.80;;;;;;1570146;74;681;-73
2024/01/21 10:56:57;;;;;;;;;;;17.30;41.00;;;;;;1557206;74;1447;-75
2024/01/21 10:58:59;;;;;;;;;;;17.30;41.00;;;;;;1557324;74;1146;-76
2024/01/21 11:01:04;;;;;;;;;;;17.40;41.80;;;;;;1561956;74;742;-77
2024/01/21 11:03:27;;;;;;;;;;;17.30;42.10;;;;;;1571395;74;775;-75
2024/01/21 11:05:25;;;;;;;;;;;17.40;42.10;;;;;;1565895;74;1079;-72
2024/01/21 11:07:27;;;;;;;;;;;17.40;41.90;;;;;;1529317;76;1100;-72
2024/01/21 11:09:30;;;;;;;;;;;17.40;41.80;;;;;;1567019;74;791;-72
2024/01/21 11:11:32;;;;;;;;;;;17.40;42.00;;;;;;1523947;76;1594;-75
2024/01/21 11:13:49;;;;;;;;;;;17.40;42.00;;;;;;1568449;74;1942;-72
2024/01/21 11:15:51;;;;;;;;;;;17.40;42.00;;;;;;1564261;74;712;-73
2024/01/21 11:17:55;;;;;;;;;;;17.40;42.00;;;;;;1555420;74;1196;-73
2024/01/21 11:19:57;;;;;;;;;;;17.50;42.20;;;;;;1557187;74;1076;-71
2024/01/21 11:21:58;;;;;;;;;;;17.50;42.10;;;;;;1563395;74;692;-75
2024/01/21 11:24:02;;;;;;;;;;;17.50;42.10;;;;;;1559151;74;1381;-73
2024/01/21 11:26:05;;;;;;;;;;;17.40;42.40;;;;;;1560265;74;628;-73
2024/01/21 11:28:08;;;;;;;;;;;17.40;42.30;;;;;;1563975;74;1117;-74
2024/01/21 11:30:10;;;;;;;;;;;17.40;42.30;;;;;;1558264;74;1617;-73
2024/01/21 11:32:12;;;;;;;;;;;17.40;42.20;;;;;;1562867;74;648;-68
2024/01/21 11:34:14;;;;;;;;;;;17.40;42.30;;;;;;1562932;74;1935;-76
2024/01/21 11:36:16;;;;;;;;;;;17.30;36.50;;;;;;1565219;74;604;-70
2024/01/21 11:38:18;;;;;;;;;;;17.20;36.60;;;;;;1554779;74;1360;-73
2024/01/21 11:40:20;;;;;;;;;;;17.00;37.30;;;;;;1561163;74;733;-75
2024/01/21 11:42:21;;;;;;;;;;;17.10;39.30;;;;;;1551281;74;709;-70
2024/01/21 11:44:27;;;;;;;;;;;17.10;39.70;;;;;;1560943;74;604;-76
2024/01/21 11:46:29;;;;;;;;;;;17.10;39.90;;;;;;1560310;74;645;-75
2024/01/21 11:48:31;;;;;;;;;;;17.20;40.10;;;;;;1560339;74;1145;-76
2024/01/21 11:50:33;;;;;;;;;;;17.30;40.60;;;;;;1569707;74;847;-75
2024/01/21 11:52:36;;;;;;;;;;;17.20;40.50;;;;;;1565900;74;1421;-72
2024/01/21 11:54:39;;;;;;;;;;;17.30;40.70;;;;;;1555155;74;1929;-75
2024/01/21 11:56:40;;;;;;;;;;;17.30;40.90;;;;;;1558043;74;691;-74
2024/01/21 11:58:42;;;;;;;;;;;17.30;41.20;;;;;;1558831;74;1074;-75
2024/01/21 12:00:44;;;;;;;;;;;17.30;41.30;;;;;;1566464;74;682;-74
2024/01/21 12:02:46;;;;;;;;;;;17.30;41.30;;;;;;1572126;74;661;-74
2024/01/21 12:04:48;;;;;;;;;;;17.40;41.50;;;;;;1566165;74;772;-75
2024/01/21 12:06:50;;;;;;;;;;;17.40;41.60;;;;;;1563191;74;1558;-72
2024/01/21 12:08:52;;;;;;;;;;;17.40;41.60;;;;;;1558590;74;1142;-76